Time;durP1;ratioP1;P1;durP2;ratioP2;P2;SDS_P1;SDS_P2;PMS_P1;PMS_P2;Temp;Humidity;BMP_temperature;BMP_pressure;BME280_temperature;BME280_humidity;BME280_pressure;Samples;Min_cycle;Max_cycle;Signal;HPM_P1;HPM_P2
2022/11/26 00:01:20;;;;;;;26.75;6.13;;;5.00;99.90;;;;;;5051949;28;20534;-51
2022/11/26 00:03:47;;;;;;;26.42;6.13;;;4.80;99.90;;;;;;5051710;28;20426;-52
2022/11/26 00:06:33;;;;;;;26.80;5.85;;;4.90;99.90;;;;;;5017452;28;20059;-50
2022/11/26 00:09:01;;;;;;;23.92;5.68;;;4.80;99.90;;;;;;5018078;28;20045;-52
2022/11/26 00:11:27;;;;;;;19.52;5.43;;;;;;;;;;5019250;28;20124;-49
2022/11/26 00:13:53;;;;;;;15.73;5.25;;;;;;;;;;5019321;28;20038;-51
2022/11/26 00:16:19;;;;;;;27.52;5.95;;;4.80;99.90;;;;;;5024349;28;20077;-50
2022/11/26 00:18:45;;;;;;;26.70;7.30;;;4.70;99.90;;;;;;5020038;28;20203;-51
2022/11/26 00:21:21;;;;;;;26.52;5.70;;;4.60;99.90;;;;;;5019837;28;20057;-51
2022/11/26 00:23:47;;;;;;;24.73;6.75;;;4.50;99.90;;;;;;5022192;28;20094;-49
2022/11/26 00:26:19;;;;;;;23.55;5.72;;;4.50;99.90;;;;;;5023636;28;20041;-50
2022/11/26 00:28:59;;;;;;;23.52;6.32;;;4.50;99.90;;;;;;5022645;28;20082;-49
2022/11/26 00:31:25;;;;;;;24.77;6.30;;;4.50;99.90;;;;;;5020521;28;20045;-48
2022/11/26 00:33:51;;;;;;;31.00;6.13;;;4.50;99.90;;;;;;5020454;28;20147;-48
2022/11/26 00:36:24;;;;;;;21.50;5.88;;;4.50;99.90;;;;;;5018716;28;20593;-49
2022/11/26 00:38:56;;;;;;;20.88;6.45;;;4.50;99.90;;;;;;5020206;28;20455;-52
2022/11/26 00:41:24;;;;;;;22.80;6.35;;;4.50;99.90;;;;;;5018360;28;20041;-50
2022/11/26 00:43:50;;;;;;;25.75;6.60;;;;;;;;;;5019517;28;20869;-48
2022/11/26 00:46:19;;;;;;;27.00;6.95;;;4.60;99.90;;;;;;5017533;28;20037;-51
2022/11/26 00:48:45;;;;;;;26.92;8.27;;;4.50;99.90;;;;;;5016993;28;20048;-50
2022/11/26 00:51:26;;;;;;;23.52;6.53;;;4.60;99.90;;;;;;5021154;28;20045;-51
2022/11/26 00:53:54;;;;;;;16.85;5.95;;;4.60;99.90;;;;;;5017474;28;20045;-48
2022/11/26 00:56:22;;;;;;;24.63;7.25;;;4.60;99.90;;;;;;5015894;28;20164;-52
2022/11/26 00:58:48;;;;;;;25.98;6.13;;;4.60;99.90;;;;;;5020015;28;20049;-50
2022/11/26 01:01:23;;;;;;;32.75;7.30;;;4.60;99.90;;;;;;5020054;28;20053;-49
2022/11/26 01:03:49;;;;;;;24.80;6.45;;;;;;;;;;5018921;28;20042;-50
2022/11/26 01:06:19;;;;;;;30.63;6.63;;;4.50;99.90;;;;;;5019764;28;20135;-51
2022/11/26 01:08:45;;;;;;;25.52;7.88;;;;;;;;;;5016939;28;20069;-51
2022/11/26 01:11:14;;;;;;;26.92;6.97;;;4.60;99.90;;;;;;5020010;28;20039;-48
2022/11/26 01:13:42;;;;;;;22.52;7.20;;;4.60;99.90;;;;;;5016170;28;20037;-50
2022/11/26 01:16:24;;;;;;;25.83;5.75;;;4.50;99.90;;;;;;5017532;28;20041;-52
2022/11/26 01:18:52;;;;;;;23.60;6.80;;;4.70;99.90;;;;;;5051397;28;20052;-50
2022/11/26 01:21:18;;;;;;;24.52;6.53;;;4.60;99.90;;;;;;5019013;28;20049;-53
2022/11/26 01:23:44;;;;;;;22.30;6.15;;;;;;;;;;5017526;28;20037;-49
2022/11/26 01:26:22;;;;;;;19.48;5.65;;;4.70;99.90;;;;;;5017496;28;20049;-50
2022/11/26 01:28:48;;;;;;;22.48;5.35;;;4.60;99.90;;;;;;5017522;28;20045;-49
2022/11/26 01:31:18;;;;;;;24.88;5.70;;;4.60;99.90;;;;;;5013507;28;20468;-50
2022/11/26 01:33:44;;;;;;;24.38;6.70;;;;;;;;;;5017001;28;20049;-52
2022/11/26 01:36:34;;;;;;;19.52;5.32;;;4.50;99.90;;;;;;5017762;28;20069;-51
2022/11/26 01:39:12;;;;;;;30.48;6.07;;;4.60;99.90;;;;;;5014440;28;20045;-52
2022/11/26 01:41:44;;;;;;;29.00;6.47;;;4.50;99.90;;;;;;5018647;28;20046;-50
2022/11/26 01:44:26;;;;;;;33.92;6.10;;;4.60;99.90;;;;;;5022382;28;21668;-51
2022/11/26 01:46:52;;;;;;;24.95;6.32;;;4.70;99.90;;;;;;5034406;28;20033;-51
2022/11/26 01:49:25;;;;;;;26.75;6.35;;;4.80;99.90;;;;;;5019692;28;20045;-51
2022/11/26 01:52:16;;;;;;;25.23;6.50;;;4.70;99.90;;;;;;5019455;28;20122;-50
2022/11/26 01:54:43;;;;;;;30.80;6.32;;;4.80;99.90;;;;;;5021747;28;20042;-52
2022/11/26 01:57:15;;;;;;;27.00;6.13;;;4.80;99.90;;;;;;5018171;28;20722;-51
2022/11/26 01:59:43;;;;;;;33.53;7.38;;;4.60;99.90;;;;;;5018458;28;20060;-51
2022/11/26 02:02:10;;;;;;;32.47;7.22;;;4.70;99.90;;;;;;5015824;28;20111;-50
2022/11/26 02:04:45;;;;;;;27.30;6.70;;;4.90;99.90;;;;;;5018803;28;20086;-50
2022/11/26 02:07:11;;;;;;;25.42;6.90;;;;;;;;;;5018419;28;20044;-49
2022/11/26 02:09:38;;;;;;;19.10;5.78;;;;;;;;;;5017607;28;20502;-53
2022/11/26 02:12:04;;;;;;;20.50;6.68;;;4.70;99.90;;;;;;5017471;28;20640;-47
2022/11/26 02:14:41;;;;;;;21.20;6.50;;;4.80;99.90;;;;;;5022630;28;20041;-50
2022/11/26 02:17:36;;;;;;;18.63;5.38;;;4.70;99.90;;;;;;5014882;28;20425;-48
2022/11/26 02:20:40;;;;;;;27.42;6.60;;;4.60;99.90;;;;;;5015269;28;20045;-47
2022/11/26 02:23:27;;;;;;;24.70;5.63;;;4.50;99.90;;;;;;5016671;28;20041;-49
2022/11/26 02:26:02;;;;;;;29.77;6.57;;;4.50;99.90;;;;;;5015977;28;20038;-50
2022/11/26 02:28:42;;;;;;;25.35;6.72;;;4.40;99.90;;;;;;5017240;28;20465;-48
2022/11/26 02:31:12;;;;;;;29.02;5.88;;;4.30;99.90;;;;;;5017064;28;20041;-50
2022/11/26 02:33:56;;;;;;;31.60;6.38;;;4.20;99.90;;;;;;5020291;28;20045;-52
2022/11/26 02:36:37;;;;;;;20.45;5.90;;;4.30;99.90;;;;;;5015480;28;20045;-48
2022/11/26 02:39:19;;;;;;;30.40;6.55;;;4.20;99.90;;;;;;5015485;28;20072;-50
2022/11/26 02:41:49;;;;;;;25.63;6.40;;;4.20;99.90;;;;;;5016500;28;20041;-53
2022/11/26 02:44:18;;;;;;;26.90;5.90;;;4.00;99.90;;;;;;5017409;28;22934;-49
2022/11/26 02:46:47;;;;;;;24.20;6.60;;;4.20;99.90;;;;;;5018408;28;21210;-49
2022/11/26 02:49:20;;;;;;;29.88;7.05;;;4.10;99.90;;;;;;5019228;28;20129;-48
2022/11/26 02:51:56;;;;;;;26.38;6.40;;;4.10;99.90;;;;;;5018311;28;20471;-50
2022/11/26 02:54:23;;;;;;;28.58;7.43;;;4.10;99.90;;;;;;5017164;28;20422;-49
2022/11/26 02:56:50;;;;;;;29.10;6.40;;;4.10;99.90;;;;;;5019324;28;20626;-50
2022/11/26 02:59:16;;;;;;;26.38;6.80;;;;;;;;;;5017968;28;20056;-49
2022/11/26 03:01:54;;;;;;;33.05;7.22;;;4.20;99.90;;;;;;5020437;28;20153;-48
2022/11/26 03:04:24;;;;;;;22.00;8.13;;;4.00;99.90;;;;;;5017684;28;20252;-52
2022/11/26 03:06:52;;;;;;;27.95;7.35;;;3.90;99.90;;;;;;5017888;28;20529;-50
2022/11/26 03:09:21;;;;;;;30.92;7.75;;;4.10;99.90;;;;;;5015462;28;20402;-50
2022/11/26 03:11:47;;;;;;;26.80;7.50;;;;;;;;;;5015165;28;20045;-50
2022/11/26 03:14:13;;;;;;;28.85;7.25;;;4.00;99.90;;;;;;5016946;28;20041;-46
2022/11/26 03:16:39;;;;;;;27.45;7.82;;;;;;;;;;5016416;28;20354;-50
2022/11/26 03:19:05;;;;;;;27.73;8.18;;;3.90;99.90;;;;;;5017835;28;20068;-47
2022/11/26 03:21:34;;;;;;;27.60;8.15;;;3.90;99.90;;;;;;5018120;28;20358;-49
2022/11/26 03:24:00;;;;;;;26.80;7.88;;;;;;;;;;5015068;28;20385;-51
2022/11/26 03:26:26;;;;;;;24.10;7.47;;;;;;;;;;5014864;28;20041;-49
2022/11/26 03:28:52;;;;;;;26.42;7.13;;;;;;;;;;5016722;28;20511;-47
2022/11/26 03:31:18;;;;;;;33.15;9.25;;;;;;;;;;5016473;28;20087;-50
2022/11/26 03:33:44;;;;;;;21.42;7.28;;;;;;;;;;5018531;28;20701;-47
2022/11/26 03:36:10;;;;;;;31.48;7.32;;;;;;;;;;5015002;28;20044;-52
2022/11/26 03:38:36;;;;;;;26.63;7.65;;;;;;;;;;5017661;28;20120;-47
2022/11/26 03:41:03;;;;;;;38.10;8.15;;;4.30;99.90;;;;;;5015606;28;20684;-47
2022/11/26 03:43:29;;;;;;;39.80;8.90;;;4.20;99.90;;;;;;5014457;28;20123;-49
2022/11/26 03:45:55;;;;;;;36.28;8.48;;;4.30;99.90;;;;;;5016741;28;20045;-49
2022/11/26 03:48:21;;;;;;;31.30;8.63;;;4.40;99.90;;;;;;5015067;28;20042;-49
2022/11/26 03:50:47;;;;;;;30.35;9.07;;;;;;;;;;5016557;28;20053;-48
2022/11/26 03:53:13;;;;;;;34.35;11.45;;;;;;;;;;5016732;28;20681;-50
2022/11/26 03:55:39;;;;;;;34.90;9.40;;;;;;;;;;5016302;28;20060;-50
2022/11/26 03:58:05;;;;;;;33.25;8.95;;;;;;;;;;5019225;28;20128;-50
2022/11/26 04:00:31;;;;;;;30.80;8.93;;;;;;;;;;5020875;28;20049;-52
2022/11/26 04:02:57;;;;;;;26.05;8.93;;;;;;;;;;5021735;28;20468;-52
2022/11/26 04:05:23;;;;;;;26.52;8.43;;;;;;;;;;5022696;28;20045;-51
2022/11/26 04:07:49;;;;;;;32.97;9.50;;;;;;;;;;5020592;28;20137;-52
2022/11/26 04:10:15;;;;;;;29.63;9.38;;;;;;;;;;5017495;28;20037;-51
2022/11/26 04:12:41;;;;;;;25.48;8.57;;;;;;;;;;5020349;28;20045;-51
2022/11/26 04:15:08;;;;;;;26.25;9.15;;;4.40;99.90;;;;;;5023421;28;20557;-50
2022/11/26 04:17:34;;;;;;;42.85;10.10;;;;;;;;;;5021750;28;20445;-51
2022/11/26 04:20:00;;;;;;;26.50;8.82;;;;;;;;;;5022619;28;20041;-50
2022/11/26 04:22:26;;;;;;;33.42;9.30;;;;;;;;;;5020699;28;20037;-51
2022/11/26 04:24:52;;;;;;;22.92;9.00;;;;;;;;;;5022099;28;20416;-48
2022/11/26 04:27:18;;;;;;;35.30;8.88;;;;;;;;;;5020803;28;20045;-51
2022/11/26 04:29:44;;;;;;;31.80;8.60;;;;;;;;;;5021503;28;20128;-50
2022/11/26 04:32:10;;;;;;;28.65;7.53;;;;;;;;;;5017125;28;20041;-50
2022/11/26 04:34:36;;;;;;;25.83;8.45;;;;;;;;;;5021850;28;20051;-51
2022/11/26 04:37:02;;;;;;;32.47;8.60;;;;;;;;;;5019614;28;20045;-50
2022/11/26 04:39:28;;;;;;;35.78;8.40;;;;;;;;;;5018761;28;20053;-49
2022/11/26 04:41:55;;;;;;;26.88;8.23;;;;;;;;;;5021420;28;20044;-52
2022/11/26 04:44:21;;;;;;;29.92;7.57;;;3.90;99.90;;;;;;5016514;28;20273;-47
2022/11/26 04:46:47;;;;;;;22.63;8.30;;;;;;;;;;5020474;28;20393;-51
2022/11/26 04:49:14;;;;;;;41.03;8.85;;;;;;;;;;5019432;28;20040;-52
2022/11/26 04:51:40;;;;;;;29.40;9.18;;;;;;;;;;5017506;28;20034;-47
2022/11/26 04:54:06;;;;;;;21.80;7.82;;;;;;;;;;5020054;28;22744;-47
2022/11/26 04:56:32;;;;;;;31.50;8.40;;;;;;;;;;5019469;28;20034;-47
2022/11/26 04:58:58;;;;;;;29.60;9.15;;;;;;;;;;5021125;28;20068;-52
2022/11/26 05:01:24;;;;;;;30.45;8.40;;;;;;;;;;5015276;28;20613;-51
2022/11/26 05:03:50;;;;;;;29.27;10.00;;;;;;;;;;5019375;28;20049;-50
2022/11/26 05:06:17;;;;;;;30.42;9.32;;;;;;;;;;5018731;28;20047;-50
2022/11/26 05:08:43;;;;;;;35.97;9.27;;;;;;;;;;5018191;28;20252;-46
2022/11/26 05:11:09;;;;;;;31.40;9.18;;;;;;;;;;5020379;28;20082;-49
2022/11/26 05:13:35;;;;;;;40.20;9.27;;;;;;;;;;5019747;28;20041;-52
2022/11/26 05:16:01;;;;;;;28.35;9.07;;;;;;;;;;5020290;28;20437;-52
2022/11/26 05:18:26;;;;;;;30.08;9.07;;;3.80;99.90;;;;;;5020289;28;20139;-47
2022/11/26 05:20:52;;;;;;;30.23;9.82;;;3.60;99.90;;;;;;5019432;28;20136;-51
2022/11/26 05:23:18;;;;;;;34.85;9.55;;;;;;;;;;5020695;28;20041;-50
2022/11/26 05:25:44;;;;;;;31.17;10.15;;;;;;;;;;5019299;28;20044;-48
2022/11/26 05:28:10;;;;;;;26.65;9.15;;;;;;;;;;5019054;28;20052;-49
2022/11/26 05:30:36;;;;;;;33.40;10.35;;;3.60;99.90;;;;;;5019600;28;20510;-48
2022/11/26 05:33:03;;;;;;;28.63;9.93;;;;;;;;;;5018872;28;20131;-49
2022/11/26 05:35:29;;;;;;;31.95;10.43;;;3.50;99.90;;;;;;5018380;28;20037;-49
2022/11/26 05:37:55;;;;;;;28.85;9.63;;;;;;;;;;5016462;28;20323;-52
2022/11/26 05:40:21;;;;;;;46.92;11.65;;;;;;;;;;5016650;28;20406;-53
2022/11/26 05:42:47;;;;;;;35.83;11.43;;;;;;;;;;5018336;28;20317;-52
2022/11/26 05:45:13;;;;;;;30.65;11.00;;;;;;;;;;5017192;28;20041;-52
2022/11/26 05:47:39;;;;;;;41.20;12.23;;;3.60;99.90;;;;;;5018369;28;20778;-47
2022/11/26 05:50:05;;;;;;;41.25;10.90;;;;;;;;;;5022214;28;20038;-50
2022/11/26 05:52:31;;;;;;;41.95;10.98;;;;;;;;;;5015617;28;20049;-48
2022/11/26 05:54:57;;;;;;;31.10;10.82;;;;;;;;;;5016312;28;20111;-50
2022/11/26 05:57:23;;;;;;;35.33;12.60;;;;;;;;;;5016546;28;20238;-49
2022/11/26 05:59:50;;;;;;;34.05;11.88;;;;;;;;;;5017280;28;20083;-52
2022/11/26 06:02:16;;;;;;;33.92;12.00;;;;;;;;;;5016354;28;20041;-48
2022/11/26 06:04:42;;;;;;;39.40;10.13;;;;;;;;;;5019423;28;20049;-48
2022/11/26 06:07:08;;;;;;;37.85;12.05;;;;;;;;;;5016335;28;20037;-52
2022/11/26 06:09:34;;;;;;;32.90;11.85;;;;;;;;;;5016265;28;20046;-49
2022/11/26 06:12:01;;;;;;;44.88;13.88;;;;;;;;;;5016556;28;20072;-47
2022/11/26 06:14:27;;;;;;;32.03;10.90;;;;;;;;;;5019613;28;20042;-50
2022/11/26 06:16:53;;;;;;;36.83;11.82;;;;;;;;;;5016988;28;20129;-47
2022/11/26 06:19:19;;;;;;;35.85;11.43;;;;;;;;;;5015515;28;20509;-49
2022/11/26 06:21:45;;;;;;;39.17;11.93;;;;;;;;;;5016688;28;20637;-47
2022/11/26 06:24:11;;;;;;;46.67;13.43;;;3.50;99.90;;;;;;5018446;28;20114;-47
2022/11/26 06:26:37;;;;;;;37.92;10.75;;;;;;;;;;5005465;28;20509;-47
2022/11/26 06:29:03;;;;;;;35.08;11.85;;;;;;;;;;5018270;28;20038;-46
2022/11/26 06:31:29;;;;;;;33.17;10.77;;;;;;;;;;5020116;28;20148;-51
2022/11/26 06:33:55;;;;;;;37.30;11.32;;;;;;;;;;5016073;28;20041;-50
2022/11/26 06:36:22;;;;;;;42.97;12.30;;;;;;;;;;5017589;28;20075;-48
2022/11/26 06:38:48;;;;;;;40.38;14.35;;;;;;;;;;5018025;28;20495;-47
2022/11/26 06:41:14;;;;;;;41.53;13.93;;;;;;;;;;5017989;28;20077;-46
2022/11/26 06:43:40;;;;;;;31.30;11.70;;;;;;;;;;5021163;28;20044;-51
2022/11/26 06:46:08;;;;;;;31.40;12.02;;;3.50;99.90;;;;;;5016863;28;20041;-49
2022/11/26 06:48:35;;;;;;;37.42;12.52;;;3.70;99.90;;;;;;5018388;28;20870;-47
2022/11/26 06:51:09;;;;;;;47.08;13.63;;;3.70;99.90;;;;;;5019859;28;20537;-51
2022/11/26 06:53:35;;;;;;;39.97;12.85;;;;;;;;;;5021013;28;25507;-47
2022/11/26 06:56:02;;;;;;;36.95;13.32;;;;;;;;;;5021912;28;20140;-50
2022/11/26 06:58:28;;;;;;;38.97;14.52;;;;;;;;;;5016979;28;20140;-48
2022/11/26 07:00:54;;;;;;;43.45;13.60;;;;;;;;;;5019637;28;20429;-49
2022/11/26 07:03:20;;;;;;;46.33;12.85;;;;;;;;;;5017040;28;20056;-47
2022/11/26 07:05:46;;;;;;;43.60;13.63;;;;;;;;;;5019248;28;20053;-52
2022/11/26 07:08:12;;;;;;;29.70;11.75;;;;;;;;;;5017359;28;20128;-47
2022/11/26 07:10:38;;;;;;;30.85;12.70;;;;;;;;;;5015371;28;20041;-48
2022/11/26 07:13:05;;;;;;;40.10;14.57;;;;;;;;;;5016744;28;20041;-52
2022/11/26 07:15:31;;;;;;;45.20;12.80;;;;;;;;;;5016829;28;21123;-48
2022/11/26 07:17:58;;;;;;;31.30;13.30;;;3.50;99.90;;;;;;5016867;28;20561;-46
2022/11/26 07:20:24;;;;;;;37.45;13.75;;;;;;;;;;5015512;28;20686;-46
2022/11/26 07:22:50;;;;;;;35.95;14.15;;;;;;;;;;5016547;28;20033;-47
2022/11/26 07:25:16;;;;;;;47.97;15.65;;;;;;;;;;5014252;28;20054;-50
2022/11/26 07:27:44;;;;;;;38.95;15.88;;;;;;;;;;5013761;28;20055;-47
2022/11/26 07:30:10;;;;;;;41.25;16.13;;;4.20;99.90;;;;;;5016961;28;20045;-48
2022/11/26 07:32:36;;;;;;;46.28;18.15;;;;;;;;;;5023406;28;20045;-48
2022/11/26 07:35:02;;;;;;;43.28;15.88;;;;;;;;;;5020347;28;20045;-48
2022/11/26 07:37:29;;;;;;;39.30;15.48;;;;;;;;;;5017594;28;20250;-48
2022/11/26 07:39:55;;;;;;;41.05;17.42;;;;;;;;;;5020420;28;20631;-48
2022/11/26 07:42:21;;;;;;;41.78;17.10;;;;;;;;;;5021631;28;20045;-47
2022/11/26 07:44:47;;;;;;;48.63;16.83;;;;;;;;;;5020874;28;20037;-47
2022/11/26 07:47:12;;;;;;;51.88;18.45;;;4.40;99.90;;;;;;5019359;28;20192;-46
2022/11/26 07:49:39;;;;;;;41.35;16.00;;;;;;;;;;5019361;28;21240;-51
2022/11/26 07:52:05;;;;;;;43.33;16.70;;;;;;;;;;5020388;28;20076;-49
2022/11/26 07:54:31;;;;;;;44.58;16.25;;;;;;;;;;5017749;28;20038;-50
2022/11/26 07:56:57;;;;;;;49.35;17.33;;;;;;;;;;5021460;28;20681;-48
2022/11/26 07:59:23;;;;;;;44.75;16.23;;;4.50;99.90;;;;;;5023585;28;20466;-47
2022/11/26 08:01:48;;;;;;;42.03;15.77;;;4.80;99.90;;;;;;5019834;28;20042;-47
2022/11/26 08:04:14;;;;;;;44.03;16.95;;;4.70;99.90;;;;;;5020570;28;20053;-46
2022/11/26 08:06:40;;;;;;;36.63;14.95;;;4.90;99.90;;;;;;5020889;28;20524;-46
2022/11/26 08:09:06;;;;;;;38.53;15.20;;;;;;;;;;5019841;28;20064;-50
2022/11/26 08:11:32;;;;;;;38.78;14.95;;;5.00;99.90;;;;;;5022050;28;20048;-47
2022/11/26 08:14:10;;;;;;;36.80;16.98;;;5.00;99.90;;;;;;5020201;28;20041;-48
2022/11/26 08:16:36;;;;;;;40.00;16.45;;;;;;;;;;5020411;28;20049;-48
2022/11/26 08:19:09;;;;;;;36.35;15.07;;;5.10;99.90;;;;;;5023092;28;20248;-47
2022/11/26 08:21:35;;;;;;;42.25;15.15;;;5.10;99.90;;;;;;5020576;28;20037;-47
2022/11/26 08:24:02;;;;;;;40.00;15.18;;;;;;;;;;5020315;28;20053;-50
2022/11/26 08:26:28;;;;;;;32.30;15.30;;;5.10;99.90;;;;;;5021998;28;20048;-47
2022/11/26 08:28:54;;;;;;;38.53;15.05;;;;;;;;;;5018938;28;20049;-47
2022/11/26 08:31:21;;;;;;;37.65;15.52;;;5.30;99.90;;;;;;5022470;28;20724;-49
2022/11/26 08:33:47;;;;;;;33.75;15.70;;;5.40;99.90;;;;;;5022828;28;20116;-46
2022/11/26 08:36:13;;;;;;;38.42;16.85;;;;;;;;;;5017674;28;20530;-46
2022/11/26 08:38:39;;;;;;;42.97;16.17;;;5.80;99.90;;;;;;5017716;28;20132;-49
2022/11/26 08:41:08;;;;;;;44.58;15.68;;;6.30;99.90;;;;;;5016785;28;20053;-49
2022/11/26 08:43:35;;;;;;;32.17;15.43;;;6.40;99.90;;;;;;5018700;28;20425;-47
2022/11/26 08:46:01;;;;;;;40.42;13.98;;;6.50;99.90;;;;;;5015639;28;20449;-49
2022/11/26 08:48:28;;;;;;;34.50;13.70;;;6.40;99.90;;;;;;5016952;28;20053;-46
2022/11/26 08:50:59;;;;;;;33.00;12.25;;;6.50;99.90;;;;;;5017477;28;20073;-49
2022/11/26 08:53:25;;;;;;;34.90;13.57;;;6.40;99.90;;;;;;5017045;28;20120;-48
2022/11/26 08:55:52;;;;;;;26.25;10.55;;;6.40;99.90;;;;;;5019279;28;20083;-49
2022/11/26 08:58:18;;;;;;;32.25;11.82;;;6.40;99.90;;;;;;5018955;28;20152;-46
2022/11/26 09:00:44;;;;;;;28.42;11.35;;;6.40;99.90;;;;;;5023152;28;20044;-49
2022/11/26 09:03:09;;;;;;;30.75;12.23;;;6.30;99.90;;;;;;5017913;28;20045;-47
2022/11/26 09:05:35;;;;;;;28.58;10.65;;;6.10;99.90;;;;;;5019845;28;20103;-49
2022/11/26 09:08:01;;;;;;;38.33;11.93;;;6.30;99.90;;;;;;5020381;28;20041;-50
2022/11/26 09:10:27;;;;;;;30.10;10.40;;;6.20;99.90;;;;;;5018069;28;20068;-47
2022/11/26 09:12:52;;;;;;;28.10;11.20;;;6.40;99.90;;;;;;5017228;28;20037;-46
2022/11/26 09:15:18;;;;;;;28.92;11.20;;;6.30;99.90;;;;;;5016204;28;20049;-50
2022/11/26 09:17:44;;;;;;;35.40;10.75;;;6.50;99.90;;;;;;5019298;28;20037;-48
2022/11/26 09:20:11;;;;;;;26.27;10.20;;;6.30;99.90;;;;;;5019994;28;20384;-48
2022/11/26 09:22:37;;;;;;;22.45;10.27;;;6.50;99.90;;;;;;5018443;28;20407;-47
2022/11/26 09:25:03;;;;;;;35.03;12.10;;;7.40;99.90;;;;;;5019999;28;20119;-46
2022/11/26 09:27:29;;;;;;;25.20;10.15;;;6.60;99.90;;;;;;5017055;28;20841;-47
2022/11/26 09:29:55;;;;;;;22.42;10.07;;;6.70;99.90;;;;;;5023075;28;20128;-48
2022/11/26 09:32:21;;;;;;;26.95;10.38;;;6.70;99.90;;;;;;5019895;28;20375;-50
2022/11/26 09:34:47;;;;;;;24.98;10.43;;;6.80;99.90;;;;;;5020555;28;20498;-51
2022/11/26 09:37:12;;;;;;;35.08;10.93;;;6.80;99.90;;;;;;5018684;28;20127;-48
2022/11/26 09:39:38;;;;;;;24.05;9.43;;;6.70;99.90;;;;;;5021937;28;20060;-49
2022/11/26 09:42:09;;;;;;;21.55;9.27;;;6.80;99.90;;;;;;5022384;28;20060;-49
2022/11/26 09:45:02;;;;;;;28.07;9.83;;;6.70;99.90;;;;;;5020678;28;20043;-48
2022/11/26 09:47:39;;;;;;;23.73;10.60;;;6.80;99.90;;;;;;5020627;28;20041;-52
2022/11/26 09:50:13;;;;;;;29.38;11.10;;;6.90;99.90;;;;;;5019084;28;20057;-46
2022/11/26 09:52:51;;;;;;;29.10;10.23;;;7.10;99.90;;;;;;5023034;28;20471;-48
2022/11/26 09:55:30;;;;;;;27.38;9.82;;;7.00;99.90;;;;;;5017644;28;20049;-48
2022/11/26 09:58:28;;;;;;;28.13;11.05;;;7.10;99.90;;;;;;5014477;28;20399;-47
2022/11/26 10:00:58;;;;;;;36.08;12.80;;;7.10;99.90;;;;;;5005783;28;20469;-49
2022/11/26 10:03:28;;;;;;;26.20;10.10;;;7.30;99.90;;;;;;5017587;28;20599;-50
2022/11/26 10:06:12;;;;;;;25.90;9.80;;;7.30;99.90;;;;;;5017780;28;20059;-48
2022/11/26 10:09:01;;;;;;;27.77;10.40;;;8.10;99.90;;;;;;5015410;28;20041;-51
2022/11/26 10:11:50;;;;;;;29.15;10.65;;;7.20;99.90;;;;;;5017782;28;20989;-47
2022/11/26 10:14:55;;;;;;;27.27;10.25;;;7.00;99.90;;;;;;5014173;28;20575;-49
2022/11/26 10:17:56;;;;;;;29.13;10.18;;;7.20;99.90;;;;;;5018891;28;20510;-48
2022/11/26 10:20:37;;;;;;;32.22;11.63;;;7.20;99.90;;;;;;5015961;28;20053;-50
2022/11/26 10:23:10;;;;;;;24.70;10.70;;;7.60;99.90;;;;;;5020111;28;20044;-47
2022/11/26 10:26:29;;;;;;;29.20;10.80;;;8.60;99.90;;;;;;5014450;28;20505;-48
2022/11/26 10:29:13;;;;;;;29.98;11.50;;;7.40;99.90;;;;;;5003571;28;24006;-48
2022/11/26 10:31:42;;;;;;;26.58;11.27;;;7.20;99.90;;;;;;5019657;28;20044;-49
2022/11/26 10:34:24;;;;;;;24.25;10.45;;;8.40;99.90;;;;;;5014785;28;20056;-50
2022/11/26 10:36:50;;;;;;;36.13;11.10;;;8.60;99.90;;;;;;5020255;28;20121;-51
2022/11/26 10:39:18;;;;;;;35.03;11.45;;;8.60;99.90;;;;;;5015358;28;20068;-50
2022/11/26 10:41:45;;;;;;;30.40;10.88;;;7.50;99.90;;;;;;5018049;28;20041;-50
2022/11/26 10:44:39;;;;;;;35.65;11.50;;;8.70;99.90;;;;;;5017354;28;20538;-48
2022/11/26 10:47:30;;;;;;;33.03;11.52;;;7.60;99.90;;;;;;5020214;28;20041;-51
2022/11/26 10:50:02;;;;;;;39.63;11.00;;;7.60;99.90;;;;;;5018876;28;20414;-46
2022/11/26 10:52:31;;;;;;;31.17;12.07;;;6.50;99.90;;;;;;5018091;28;20167;-47
2022/11/26 10:55:34;;;;;;;34.28;11.48;;;7.50;99.90;;;;;;5017837;28;20048;-47
2022/11/26 10:58:02;;;;;;;35.17;12.18;;;7.50;99.90;;;;;;5017090;28;20045;-47
2022/11/26 11:00:33;;;;;;;31.17;12.02;;;7.60;99.90;;;;;;5016324;28;20041;-47
2022/11/26 11:02:59;;;;;;;24.58;11.30;;;7.50;99.90;;;;;;5015550;28;20100;-48
2022/11/26 11:05:26;;;;;;;32.58;11.95;;;7.60;99.90;;;;;;5014803;28;20164;-50
2022/11/26 11:07:53;;;;;;;31.80;11.77;;;7.90;99.90;;;;;;5017577;28;20120;-46
2022/11/26 11:10:23;;;;;;;30.90;12.27;;;7.80;99.90;;;;;;5016659;28;20053;-50
2022/11/26 11:13:10;;;;;;;26.35;11.05;;;7.90;99.90;;;;;;5016126;28;20049;-47
2022/11/26 11:15:39;;;;;;;35.25;11.25;;;9.40;99.90;;;;;;5017596;28;20033;-47
2022/11/26 11:18:10;;;;;;;37.20;13.27;;;7.80;99.90;;;;;;5014567;28;20056;-48
2022/11/26 11:20:39;;;;;;;30.45;11.48;;;7.90;99.90;;;;;;5017018;28;20044;-46
2022/11/26 11:23:09;;;;;;;35.05;12.57;;;9.90;99.90;;;;;;5016147;28;20060;-47
2022/11/26 11:25:39;;;;;;;35.42;11.85;;;7.90;99.90;;;;;;5015078;28;20075;-47
2022/11/26 11:28:19;;;;;;;23.45;10.35;;;8.00;99.90;;;;;;5017593;28;20461;-48
2022/11/26 11:30:45;;;;;;;31.98;11.40;;;8.10;99.90;;;;;;5015900;28;20040;-49
2022/11/26 11:33:19;;;;;;;36.28;11.60;;;9.90;99.90;;;;;;5015969;28;20052;-47
2022/11/26 11:35:56;;;;;;;36.88;12.05;;;8.30;99.90;;;;;;5018274;28;20160;-48
2022/11/26 11:38:24;;;;;;;29.30;10.77;;;8.50;99.90;;;;;;5017957;28;20045;-49
2022/11/26 11:40:50;;;;;;;31.38;10.70;;;8.10;99.90;;;;;;5018291;28;20599;-48
2022/11/26 11:43:18;;;;;;;36.80;12.20;;;8.20;99.90;;;;;;5016500;28;20041;-51
2022/11/26 11:46:08;;;;;;;34.25;13.50;;;9.90;99.90;;;;;;5014246;28;20084;-48
2022/11/26 11:48:46;;;;;;;35.53;12.75;;;8.30;99.90;;;;;;5017774;28;20052;-48
2022/11/26 11:51:24;;;;;;;28.40;11.50;;;8.20;99.90;;;;;;5014354;28;20153;-50
2022/11/26 11:54:29;;;;;;;34.35;11.98;;;8.40;99.90;;;;;;5016740;28;20064;-52
2022/11/26 11:57:41;;;;;;;32.03;11.85;;;8.30;99.90;;;;;;5015507;28;20061;-51
2022/11/26 12:00:15;;;;;;;33.25;13.00;;;8.40;99.90;;;;;;5015126;28;20136;-48
2022/11/26 12:02:59;;;;;;;26.83;11.00;;;8.70;99.90;;;;;;5014438;28;20072;-51
2022/11/26 12:05:40;;;;;;;29.42;10.63;;;8.30;99.90;;;;;;5013595;28;20069;-48
2022/11/26 12:08:38;;;;;;;32.42;12.27;;;8.20;99.90;;;;;;5017803;28;20112;-47
2022/11/26 12:11:33;;;;;;;36.45;13.20;;;8.30;99.90;;;;;;5018028;28;20442;-46
2022/11/26 12:14:13;;;;;;;32.08;10.98;;;8.40;99.90;;;;;;5016565;28;20136;-47
2022/11/26 12:16:43;;;;;;;31.52;11.07;;;9.50;99.90;;;;;;5014542;28;20057;-51
2022/11/26 12:19:35;;;;;;;27.00;11.30;;;8.40;99.90;;;;;;5019327;28;20676;-53
2022/11/26 12:22:19;;;;;;;30.92;12.60;;;8.40;99.90;;;;;;5018810;28;20127;-48
2022/11/26 12:25:06;;;;;;;34.50;12.75;;;10.40;99.90;;;;;;5021462;28;20656;-48
2022/11/26 12:27:51;;;;;;;30.85;12.32;;;8.40;99.90;;;;;;5019437;28;20046;-50
2022/11/26 12:30:24;;;;;;;38.17;13.38;;;8.20;99.90;;;;;;5017073;28;20042;-46
2022/11/26 12:33:01;;;;;;;40.17;12.93;;;8.40;99.90;;;;;;5019000;28;20037;-51
2022/11/26 12:35:28;;;;;;;35.53;12.30;;;8.40;99.90;;;;;;5020774;28;20120;-48
2022/11/26 12:37:59;;;;;;;36.42;12.90;;;8.30;99.90;;;;;;5017374;28;20038;-48
2022/11/26 12:40:46;;;;;;;35.85;11.63;;;8.10;99.90;;;;;;5016593;28;20800;-47
2022/11/26 12:43:43;;;;;;;30.98;11.88;;;8.30;99.90;;;;;;5016251;28;20046;-47
2022/11/26 12:46:21;;;;;;;34.22;11.48;;;8.30;99.90;;;;;;5017667;28;20037;-51
2022/11/26 12:49:02;;;;;;;32.80;11.00;;;9.00;99.90;;;;;;5018888;28;20072;-47
2022/11/26 12:51:33;;;;;;;33.88;11.05;;;8.50;99.90;;;;;;5017651;28;20469;-48
2022/11/26 12:54:17;;;;;;;28.60;11.10;;;8.40;99.90;;;;;;5016212;28;20316;-48
2022/11/26 12:57:03;;;;;;;34.88;11.10;;;10.40;99.90;;;;;;5020362;28;20054;-48
2022/11/26 12:59:39;;;;;;;43.83;12.20;;;8.60;99.90;;;;;;5019501;28;20038;-48
2022/11/26 13:02:23;;;;;;;29.48;11.68;;;8.40;99.90;;;;;;5018412;28;20053;-47
2022/11/26 13:04:50;;;;;;;32.67;12.05;;;8.60;99.90;;;;;;5016396;28;20052;-50
2022/11/26 13:07:35;;;;;;;35.17;11.75;;;6.60;99.90;;;;;;5017614;28;20116;-53
2022/11/26 13:10:28;;;;;;;33.70;12.00;;;8.50;99.90;;;;;;5021955;28;20042;-52
2022/11/26 13:13:01;;;;;;;32.85;12.15;;;8.40;99.90;;;;;;5016057;28;20037;-52
2022/11/26 13:15:59;;;;;;;29.73;11.52;;;9.00;99.90;;;;;;5017951;28;20113;-48
2022/11/26 13:18:43;;;;;;;43.72;12.48;;;8.50;99.90;;;;;;5010897;28;20064;-50
2022/11/26 13:21:27;;;;;;;37.38;12.73;;;8.60;99.90;;;;;;5016714;28;20053;-50
2022/11/26 13:24:21;;;;;;;29.55;12.52;;;8.70;99.90;;;;;;5016552;28;20029;-49
2022/11/26 13:27:34;;;;;;;37.95;12.85;;;8.30;99.90;;;;;;5017852;28;20048;-49
2022/11/26 13:30:03;;;;;;;31.70;12.85;;;8.30;99.90;;;;;;4979285;28;20049;-50
2022/11/26 13:32:41;;;;;;;32.97;12.30;;;8.80;99.90;;;;;;5016170;28;20178;-48
2022/11/26 13:35:24;;;;;;;32.92;13.02;;;9.20;99.90;;;;;;5023457;28;21264;-48